sensor_id;sensor_type;location;lat;lon;timestamp;temperature;humidity
18454;DHT22;9356;52.202;20.950;2022-07-17T00:00:03;14.70;98.60
18454;DHT22;9356;52.202;20.950;2022-07-17T00:01:05;14.70;98.50
18454;DHT22;9356;52.202;20.950;2022-07-17T00:02:09;14.70;98.40
18454;DHT22;9356;52.202;20.950;2022-07-17T00:03:15;14.70;98.60
18454;DHT22;9356;52.202;20.950;2022-07-17T00:04:20;14.70;98.40
18454;DHT22;9356;52.202;20.950;2022-07-17T00:05:22;14.70;98.20
18454;DHT22;9356;52.202;20.950;2022-07-17T00:06:26;14.60;98.50
18454;DHT22;9356;52.202;20.950;2022-07-17T00:07:28;14.70;98.50
18454;DHT22;9356;52.202;20.950;2022-07-17T00:08:32;14.70;98.50
18454;DHT22;9356;52.202;20.950;2022-07-17T00:09:34;14.60;98.30
18454;DHT22;9356;52.202;20.950;2022-07-17T00:10:42;14.60;98.40
18454;DHT22;9356;52.202;20.950;2022-07-17T00:11:44;14.60;98.50
18454;DHT22;9356;52.202;20.950;2022-07-17T00:12:48;14.70;98.50
18454;DHT22;9356;52.202;20.950;2022-07-17T00:13:51;14.70;98.50
18454;DHT22;9356;52.202;20.950;2022-07-17T00:14:55;14.70;98.40
18454;DHT22;9356;52.202;20.950;2022-07-17T00:15:57;14.70;98.50
18454;DHT22;9356;52.202;20.950;2022-07-17T00:17:01;14.80;98.70
18454;DHT22;9356;52.202;20.950;2022-07-17T00:18:04;14.70;98.60
18454;DHT22;9356;52.202;20.950;2022-07-17T00:19:08;14.70;98.50
18454;DHT22;9356;52.202;20.950;2022-07-17T00:20:12;14.70;98.40
18454;DHT22;9356;52.202;20.950;2022-07-17T00:21:16;14.70;98.40
18454;DHT22;9356;52.202;20.950;2022-07-17T00:22:19;14.70;98.40
18454;DHT22;9356;52.202;20.950;2022-07-17T00:23:22;14.80;98.60
18454;DHT22;9356;52.202;20.950;2022-07-17T00:24:27;14.80;98.50
18454;DHT22;9356;52.202;20.950;2022-07-17T00:25:31;14.80;98.50
18454;DHT22;9356;52.202;20.950;2022-07-17T00:26:34;14.80;98.40
18454;DHT22;9356;52.202;20.950;2022-07-17T00:27:38;14.80;98.30
18454;DHT22;9356;52.202;20.950;2022-07-17T00:28:41;14.80;98.50
18454;DHT22;9356;52.202;20.950;2022-07-17T00:29:44;14.80;98.50
18454;DHT22;9356;52.202;20.950;2022-07-17T00:30:47;14.80;98.40
18454;DHT22;9356;52.202;20.950;2022-07-17T00:31:50;14.80;98.50
18454;DHT22;9356;52.202;20.950;2022-07-17T00:32:53;14.80;98.50
18454;DHT22;9356;52.202;20.950;2022-07-17T00:33:57;14.80;98.40
18454;DHT22;9356;52.202;20.950;2022-07-17T00:34:59;14.80;98.30
18454;DHT22;9356;52.202;20.950;2022-07-17T00:36:08;14.80;98.40
18454;DHT22;9356;52.202;20.950;2022-07-17T00:37:10;14.80;98.60
18454;DHT22;9356;52.202;20.950;2022-07-17T00:38:14;14.90;98.50
18454;DHT22;9356;52.202;20.950;2022-07-17T00:39:19;14.80;98.40
18454;DHT22;9356;52.202;20.950;2022-07-17T00:40:24;14.80;98.30
18454;DHT22;9356;52.202;20.950;2022-07-17T00:41:27;13.50;98.20
18454;DHT22;9356;52.202;20.950;2022-07-17T00:42:31;14.80;98.40
18454;DHT22;9356;52.202;20.950;2022-07-17T00:43:33;14.80;98.40
18454;DHT22;9356;52.202;20.950;2022-07-17T00:44:37;14.80;98.40
18454;DHT22;9356;52.202;20.950;2022-07-17T00:45:42;14.80;98.40
18454;DHT22;9356;52.202;20.950;2022-07-17T00:46:45;14.80;98.40
18454;DHT22;9356;52.202;20.950;2022-07-17T00:47:54;14.80;98.40
18454;DHT22;9356;52.202;20.950;2022-07-17T00:48:58;14.80;98.30
18454;DHT22;9356;52.202;20.950;2022-07-17T00:50:01;14.80;98.30
18454;DHT22;9356;52.202;20.950;2022-07-17T00:51:06;14.80;98.40
18454;DHT22;9356;52.202;20.950;2022-07-17T00:52:11;14.80;98.40
18454;DHT22;9356;52.202;20.950;2022-07-17T00:53:14;14.80;98.40
18454;DHT22;9356;52.202;20.950;2022-07-17T00:54:18;14.80;98.40
18454;DHT22;9356;52.202;20.950;2022-07-17T00:55:23;14.80;98.50
18454;DHT22;9356;52.202;20.950;2022-07-17T00:56:46;14.80;98.60
18454;DHT22;9356;52.202;20.950;2022-07-17T00:57:52;14.80;98.40
18454;DHT22;9356;52.202;20.950;2022-07-17T00:58:56;14.90;98.80
18454;DHT22;9356;52.202;20.950;2022-07-17T01:00:00;14.90;98.40
18454;DHT22;9356;52.202;20.950;2022-07-17T01:01:04;14.80;98.40
18454;DHT22;9356;52.202;20.950;2022-07-17T01:02:11;14.80;98.50
18454;DHT22;9356;52.202;20.950;2022-07-17T01:03:16;14.80;98.40
18454;DHT22;9356;52.202;20.950;2022-07-17T01:04:20;14.80;98.40
18454;DHT22;9356;52.202;20.950;2022-07-17T01:05:23;14.80;98.40
18454;DHT22;9356;52.202;20.950;2022-07-17T01:06:28;14.80;98.40
18454;DHT22;9356;52.202;20.950;2022-07-17T01:07:32;14.80;98.50
18454;DHT22;9356;52.202;20.950;2022-07-17T01:08:36;14.80;98.50
18454;DHT22;9356;52.202;20.950;2022-07-17T01:09:39;14.80;98.40
18454;DHT22;9356;52.202;20.950;2022-07-17T01:10:42;16.40;99.00
18454;DHT22;9356;52.202;20.950;2022-07-17T01:11:45;14.80;98.40
18454;DHT22;9356;52.202;20.950;2022-07-17T01:12:48;14.80;98.70
18454;DHT22;9356;52.202;20.950;2022-07-17T01:13:51;14.80;98.60
18454;DHT22;9356;52.202;20.950;2022-07-17T01:14:57;14.80;98.40
18454;DHT22;9356;52.202;20.950;2022-07-17T01:15:59;14.80;98.50
18454;DHT22;9356;52.202;20.950;2022-07-17T01:17:03;14.80;98.50
18454;DHT22;9356;52.202;20.950;2022-07-17T01:18:07;14.80;98.50
18454;DHT22;9356;52.202;20.950;2022-07-17T01:19:11;14.80;98.60
18454;DHT22;9356;52.202;20.950;2022-07-17T01:20:14;14.70;98.60
18454;DHT22;9356;52.202;20.950;2022-07-17T01:21:19;14.80;98.50
18454;DHT22;9356;52.202;20.950;2022-07-17T01:22:22;14.80;98.50
18454;DHT22;9356;52.202;20.950;2022-07-17T01:23:25;14.80;98.60
18454;DHT22;9356;52.202;20.950;2022-07-17T01:24:28;14.80;98.40
18454;DHT22;9356;52.202;20.950;2022-07-17T01:25:32;14.70;98.50
18454;DHT22;9356;52.202;20.950;2022-07-17T01:26:35;14.70;98.40
18454;DHT22;9356;52.202;20.950;2022-07-17T01:27:38;14.70;98.40
18454;DHT22;9356;52.202;20.950;2022-07-17T01:28:42;14.70;98.40
18454;DHT22;9356;52.202;20.950;2022-07-17T01:29:45;14.70;98.50
18454;DHT22;9356;52.202;20.950;2022-07-17T01:30:51;14.60;98.50
18454;DHT22;9356;52.202;20.950;2022-07-17T01:31:54;14.60;98.50
18454;DHT22;9356;52.202;20.950;2022-07-17T01:32:57;14.60;98.60
18454;DHT22;9356;52.202;20.950;2022-07-17T01:34:01;14.60;98.70
18454;DHT22;9356;52.202;20.950;2022-07-17T01:35:06;14.60;98.80
18454;DHT22;9356;52.202;20.950;2022-07-17T01:36:09;14.50;98.70
18454;DHT22;9356;52.202;20.950;2022-07-17T01:37:14;14.60;98.80
18454;DHT22;9356;52.202;20.950;2022-07-17T01:38:17;14.60;98.70
18454;DHT22;9356;52.202;20.950;2022-07-17T01:39:20;14.60;98.60
18454;DHT22;9356;52.202;20.950;2022-07-17T01:40:43;14.50;98.70
18454;DHT22;9356;52.202;20.950;2022-07-17T01:41:46;14.50;98.70
18454;DHT22;9356;52.202;20.950;2022-07-17T01:42:50;14.40;98.70
18454;DHT22;9356;52.202;20.950;2022-07-17T01:43:53;14.50;98.90
18454;DHT22;9356;52.202;20.950;2022-07-17T01:44:55;14.50;98.90
18454;DHT22;9356;52.202;20.950;2022-07-17T01:45:59;14.50;98.80
18454;DHT22;9356;52.202;20.950;2022-07-17T01:47:02;14.50;99.00
18454;DHT22;9356;52.202;20.950;2022-07-17T01:48:06;14.50;98.90
18454;DHT22;9356;52.202;20.950;2022-07-17T01:49:09;14.50;98.90
18454;DHT22;9356;52.202;20.950;2022-07-17T01:50:13;14.50;98.80
18454;DHT22;9356;52.202;20.950;2022-07-17T01:51:17;14.40;98.80
18454;DHT22;9356;52.202;20.950;2022-07-17T01:52:23;14.40;98.90
18454;DHT22;9356;52.202;20.950;2022-07-17T01:53:26;14.40;98.90
18454;DHT22;9356;52.202;20.950;2022-07-17T01:54:29;14.40;98.80
18454;DHT22;9356;52.202;20.950;2022-07-17T01:55:33;14.30;98.90
18454;DHT22;9356;52.202;20.950;2022-07-17T01:56:35;14.40;98.90
18454;DHT22;9356;52.202;20.950;2022-07-17T01:57:39;14.40;98.90
18454;DHT22;9356;52.202;20.950;2022-07-17T01:58:42;14.40;98.90
18454;DHT22;9356;52.202;20.950;2022-07-17T01:59:45;14.40;98.80
18454;DHT22;9356;52.202;20.950;2022-07-17T02:00:48;14.40;98.90
18454;DHT22;9356;52.202;20.950;2022-07-17T02:01:52;14.30;98.80
18454;DHT22;9356;52.202;20.950;2022-07-17T02:02:55;14.40;98.90
18454;DHT22;9356;52.202;20.950;2022-07-17T02:03:58;14.50;98.90
18454;DHT22;9356;52.202;20.950;2022-07-17T02:05:01;14.50;98.90
18454;DHT22;9356;52.202;20.950;2022-07-17T02:06:05;14.40;99.00
18454;DHT22;9356;52.202;20.950;2022-07-17T02:07:09;14.40;98.90
18454;DHT22;9356;52.202;20.950;2022-07-17T02:08:14;14.40;98.80
18454;DHT22;9356;52.202;20.950;2022-07-17T02:09:19;14.40;99.00
18454;DHT22;9356;52.202;20.950;2022-07-17T02:10:22;14.40;99.10
18454;DHT22;9356;52.202;20.950;2022-07-17T02:11:25;14.50;99.10
18454;DHT22;9356;52.202;20.950;2022-07-17T02:12:29;14.40;99.10
18454;DHT22;9356;52.202;20.950;2022-07-17T02:13:31;14.40;99.00
18454;DHT22;9356;52.202;20.950;2022-07-17T02:14:35;14.40;99.20
18454;DHT22;9356;52.202;20.950;2022-07-17T02:15:38;14.40;99.10
18454;DHT22;9356;52.202;20.950;2022-07-17T02:16:42;14.40;99.00
18454;DHT22;9356;52.202;20.950;2022-07-17T02:17:45;14.40;99.10
18454;DHT22;9356;52.202;20.950;2022-07-17T02:18:50;14.40;99.20
18454;DHT22;9356;52.202;20.950;2022-07-17T02:19:52;14.40;99.20
18454;DHT22;9356;52.202;20.950;2022-07-17T02:20:56;14.40;99.30
18454;DHT22;9356;52.202;20.950;2022-07-17T02:21:58;14.40;99.30
18454;DHT22;9356;52.202;20.950;2022-07-17T02:23:01;14.40;99.30
18454;DHT22;9356;52.202;20.950;2022-07-17T02:24:06;14.40;99.30
18454;DHT22;9356;52.202;20.950;2022-07-17T02:25:09;14.40;99.30
18454;DHT22;9356;52.202;20.950;2022-07-17T02:26:13;14.40;99.40
18454;DHT22;9356;52.202;20.950;2022-07-17T02:27:16;14.40;99.40
18454;DHT22;9356;52.202;20.950;2022-07-17T02:28:19;14.40;99.40
18454;DHT22;9356;52.202;20.950;2022-07-17T02:29:22;14.40;99.40
18454;DHT22;9356;52.202;20.950;2022-07-17T02:33:19;14.40;99.40
18454;DHT22;9356;52.202;20.950;2022-07-17T02:34:25;14.40;99.40
18454;DHT22;9356;52.202;20.950;2022-07-17T02:35:27;14.50;99.30
18454;DHT22;9356;52.202;20.950;2022-07-17T02:36:31;14.50;99.30
18454;DHT22;9356;52.202;20.950;2022-07-17T02:37:33;14.50;99.30
18454;DHT22;9356;52.202;20.950;2022-07-17T02:38:36;14.50;99.30
18454;DHT22;9356;52.202;20.950;2022-07-17T02:39:40;14.50;99.30
18454;DHT22;9356;52.202;20.950;2022-07-17T02:40:54;14.50;99.20
18454;DHT22;9356;52.202;20.950;2022-07-17T02:41:59;14.50;99.20
18454;DHT22;9356;52.202;20.950;2022-07-17T02:43:02;14.50;99.20
18454;DHT22;9356;52.202;20.950;2022-07-17T02:44:05;14.40;99.10
18454;DHT22;9356;52.202;20.950;2022-07-17T02:45:10;14.40;99.20
18454;DHT22;9356;52.202;20.950;2022-07-17T02:46:12;14.40;99.20
18454;DHT22;9356;52.202;20.950;2022-07-17T02:47:20;14.40;99.40
18454;DHT22;9356;52.202;20.950;2022-07-17T02:48:25;14.50;99.60
18454;DHT22;9356;52.202;20.950;2022-07-17T02:49:29;14.50;99.60
18454;DHT22;9356;52.202;20.950;2022-07-17T02:50:32;14.50;99.30
18454;DHT22;9356;52.202;20.950;2022-07-17T02:51:35;14.40;99.30
18454;DHT22;9356;52.202;20.950;2022-07-17T02:52:39;14.40;99.40
18454;DHT22;9356;52.202;20.950;2022-07-17T02:53:42;14.40;99.90
18454;DHT22;9356;52.202;20.950;2022-07-17T02:54:47;14.40;99.90
18454;DHT22;9356;52.202;20.950;2022-07-17T02:55:50;14.50;99.70
18454;DHT22;9356;52.202;20.950;2022-07-17T02:56:53;14.50;99.70
18454;DHT22;9356;52.202;20.950;2022-07-17T02:57:56;14.50;99.60
18454;DHT22;9356;52.202;20.950;2022-07-17T02:58:59;14.60;99.50
18454;DHT22;9356;52.202;20.950;2022-07-17T03:00:03;14.60;99.40
18454;DHT22;9356;52.202;20.950;2022-07-17T03:01:06;14.60;99.40
18454;DHT22;9356;52.202;20.950;2022-07-17T03:02:10;14.60;99.30
18454;DHT22;9356;52.202;20.950;2022-07-17T03:03:12;14.60;99.20
18454;DHT22;9356;52.202;20.950;2022-07-17T03:04:15;14.60;99.20
18454;DHT22;9356;52.202;20.950;2022-07-17T03:05:18;14.60;99.20
18454;DHT22;9356;52.202;20.950;2022-07-17T03:06:21;14.60;99.30
18454;DHT22;9356;52.202;20.950;2022-07-17T03:07:23;14.60;99.30
18454;DHT22;9356;52.202;20.950;2022-07-17T03:08:27;14.60;99.30
18454;DHT22;9356;52.202;20.950;2022-07-17T03:09:29;14.60;99.40
18454;DHT22;9356;52.202;20.950;2022-07-17T03:10:34;14.70;99.40
18454;DHT22;9356;52.202;20.950;2022-07-17T03:11:36;14.60;99.30
18454;DHT22;9356;52.202;20.950;2022-07-17T03:12:40;14.70;99.50
18454;DHT22;9356;52.202;20.950;2022-07-17T03:13:42;14.70;99.20
18454;DHT22;9356;52.202;20.950;2022-07-17T03:14:46;14.60;99.20
18454;DHT22;9356;52.202;20.950;2022-07-17T03:15:48;14.70;99.30
18454;DHT22;9356;52.202;20.950;2022-07-17T03:16:52;14.70;99.30
18454;DHT22;9356;52.202;20.950;2022-07-17T03:17:54;14.70;99.20
18454;DHT22;9356;52.202;20.950;2022-07-17T03:18:57;14.70;99.20
18454;DHT22;9356;52.202;20.950;2022-07-17T03:20:00;14.80;99.30
18454;DHT22;9356;52.202;20.950;2022-07-17T03:21:03;14.70;99.20
18454;DHT22;9356;52.202;20.950;2022-07-17T03:22:06;14.80;99.30
18454;DHT22;9356;52.202;20.950;2022-07-17T03:23:09;15.50;99.50
18454;DHT22;9356;52.202;20.950;2022-07-17T03:24:12;15.60;99.30
18454;DHT22;9356;52.202;20.950;2022-07-17T03:25:19;14.80;98.90
18454;DHT22;9356;52.202;20.950;2022-07-17T03:26:23;14.80;99.00
18454;DHT22;9356;52.202;20.950;2022-07-17T03:27:26;14.80;99.00
18454;DHT22;9356;52.202;20.950;2022-07-17T03:28:29;14.80;99.00
18454;DHT22;9356;52.202;20.950;2022-07-17T03:29:32;14.80;99.00
18454;DHT22;9356;52.202;20.950;2022-07-17T03:30:35;14.80;99.00
18454;DHT22;9356;52.202;20.950;2022-07-17T03:31:38;14.80;99.00
18454;DHT22;9356;52.202;20.950;2022-07-17T03:32:40;14.80;99.00
18454;DHT22;9356;52.202;20.950;2022-07-17T03:33:44;14.90;98.90
18454;DHT22;9356;52.202;20.950;2022-07-17T03:34:47;14.80;98.90
18454;DHT22;9356;52.202;20.950;2022-07-17T03:35:50;14.90;99.00
18454;DHT22;9356;52.202;20.950;2022-07-17T03:36:53;14.90;99.00
18454;DHT22;9356;52.202;20.950;2022-07-17T03:37:57;14.90;99.00
18454;DHT22;9356;52.202;20.950;2022-07-17T03:39:00;14.90;99.00
18454;DHT22;9356;52.202;20.950;2022-07-17T03:40:04;14.90;98.90
18454;DHT22;9356;52.202;20.950;2022-07-17T03:41:06;14.90;98.90
18454;DHT22;9356;52.202;20.950;2022-07-17T03:42:11;14.90;98.90
18454;DHT22;9356;52.202;20.950;2022-07-17T03:43:14;14.90;99.00
18454;DHT22;9356;52.202;20.950;2022-07-17T03:44:18;14.90;99.00
18454;DHT22;9356;52.202;20.950;2022-07-17T03:45:21;14.90;98.90
18454;DHT22;9356;52.202;20.950;2022-07-17T03:46:24;14.90;98.90
18454;DHT22;9356;52.202;20.950;2022-07-17T03:47:27;14.90;99.00
18454;DHT22;9356;52.202;20.950;2022-07-17T03:48:30;14.90;99.00
18454;DHT22;9356;52.202;20.950;2022-07-17T03:49:33;14.90;99.00
18454;DHT22;9356;52.202;20.950;2022-07-17T03:50:37;14.90;99.00
18454;DHT22;9356;52.202;20.950;2022-07-17T03:51:40;14.90;99.10
18454;DHT22;9356;52.202;20.950;2022-07-17T03:52:43;14.90;99.20
18454;DHT22;9356;52.202;20.950;2022-07-17T03:53:47;14.90;99.40
18454;DHT22;9356;52.202;20.950;2022-07-17T03:54:49;14.90;98.90
18454;DHT22;9356;52.202;20.950;2022-07-17T03:55:52;14.90;99.00
18454;DHT22;9356;52.202;20.950;2022-07-17T03:56:55;15.00;99.00
18454;DHT22;9356;52.202;20.950;2022-07-17T03:58:00;15.00;98.90
18454;DHT22;9356;52.202;20.950;2022-07-17T03:59:03;15.00;99.10
18454;DHT22;9356;52.202;20.950;2022-07-17T04:00:07;15.00;99.00
18454;DHT22;9356;52.202;20.950;2022-07-17T04:01:12;15.00;99.00
18454;DHT22;9356;52.202;20.950;2022-07-17T04:02:16;15.00;99.00
18454;DHT22;9356;52.202;20.950;2022-07-17T04:03:18;15.00;99.10
18454;DHT22;9356;52.202;20.950;2022-07-17T04:04:22;15.00;98.90
18454;DHT22;9356;52.202;20.950;2022-07-17T04:05:24;15.10;98.90
18454;DHT22;9356;52.202;20.950;2022-07-17T04:06:27;15.10;98.90
18454;DHT22;9356;52.202;20.950;2022-07-17T04:07:29;15.00;98.70
18454;DHT22;9356;52.202;20.950;2022-07-17T04:08:33;15.00;98.70
18454;DHT22;9356;52.202;20.950;2022-07-17T04:09:35;15.00;98.80
18454;DHT22;9356;52.202;20.950;2022-07-17T04:10:39;14.50;98.70
18454;DHT22;9356;52.202;20.950;2022-07-17T04:11:41;15.00;98.80
18454;DHT22;9356;52.202;20.950;2022-07-17T04:12:45;15.00;98.90
18454;DHT22;9356;52.202;20.950;2022-07-17T04:13:48;15.10;98.90
18454;DHT22;9356;52.202;20.950;2022-07-17T04:14:52;15.10;98.90
18454;DHT22;9356;52.202;20.950;2022-07-17T04:15:54;15.00;98.90
18454;DHT22;9356;52.202;20.950;2022-07-17T04:17:01;15.10;98.80
18454;DHT22;9356;52.202;20.950;2022-07-17T04:18:04;15.10;98.80
18454;DHT22;9356;52.202;20.950;2022-07-17T04:19:07;15.10;98.70
18454;DHT22;9356;52.202;20.950;2022-07-17T04:20:10;15.10;98.80
18454;DHT22;9356;52.202;20.950;2022-07-17T04:21:14;15.10;98.80
18454;DHT22;9356;52.202;20.950;2022-07-17T04:22:17;15.10;98.80
18454;DHT22;9356;52.202;20.950;2022-07-17T04:23:20;15.20;98.80
18454;DHT22;9356;52.202;20.950;2022-07-17T04:24:22;15.10;98.80
18454;DHT22;9356;52.202;20.950;2022-07-17T04:25:26;15.10;98.80
18454;DHT22;9356;52.202;20.950;2022-07-17T04:26:28;15.10;98.90
18454;DHT22;9356;52.202;20.950;2022-07-17T04:27:35;15.10;98.90
18454;DHT22;9356;52.202;20.950;2022-07-17T04:28:38;15.10;98.80
18454;DHT22;9356;52.202;20.950;2022-07-17T04:29:44;15.10;98.80
18454;DHT22;9356;52.202;20.950;2022-07-17T04:30:46;15.10;98.90
18454;DHT22;9356;52.202;20.950;2022-07-17T04:31:50;15.20;99.00
18454;DHT22;9356;52.202;20.950;2022-07-17T04:32:53;15.20;99.00
18454;DHT22;9356;52.202;20.950;2022-07-17T04:33:56;15.30;99.00
18454;DHT22;9356;52.202;20.950;2022-07-17T04:34:59;15.30;98.90
18454;DHT22;9356;52.202;20.950;2022-07-17T04:36:03;15.40;98.70
18454;DHT22;9356;52.202;20.950;2022-07-17T04:37:05;15.40;98.60
18454;DHT22;9356;52.202;20.950;2022-07-17T04:38:10;15.30;98.50
18454;DHT22;9356;52.202;20.950;2022-07-17T04:39:12;15.30;98.70
18454;DHT22;9356;52.202;20.950;2022-07-17T04:40:16;15.50;98.90
18454;DHT22;9356;52.202;20.950;2022-07-17T04:41:18;15.50;99.10
18454;DHT22;9356;52.202;20.950;2022-07-17T04:42:21;15.60;99.10
18454;DHT22;9356;52.202;20.950;2022-07-17T04:43:24;15.60;99.00
18454;DHT22;9356;52.202;20.950;2022-07-17T04:44:27;15.70;98.60
18454;DHT22;9356;52.202;20.950;2022-07-17T04:45:31;15.80;98.60
18454;DHT22;9356;52.202;20.950;2022-07-17T04:46:35;16.00;98.10
18454;DHT22;9356;52.202;20.950;2022-07-17T04:47:38;16.10;98.00
18454;DHT22;9356;52.202;20.950;2022-07-17T04:48:41;16.20;97.60
18454;DHT22;9356;52.202;20.950;2022-07-17T04:49:43;16.20;97.40
18454;DHT22;9356;52.202;20.950;2022-07-17T04:50:47;16.30;97.40
18454;DHT22;9356;52.202;20.950;2022-07-17T04:51:49;16.50;97.80
18454;DHT22;9356;52.202;20.950;2022-07-17T04:52:53;16.70;97.60
18454;DHT22;9356;52.202;20.950;2022-07-17T04:53:55;16.90;97.20
18454;DHT22;9356;52.202;20.950;2022-07-17T04:54:58;17.00;96.60
18454;DHT22;9356;52.202;20.950;2022-07-17T04:56:01;17.10;96.00
18454;DHT22;9356;52.202;20.950;2022-07-17T04:57:04;17.20;95.70
18454;DHT22;9356;52.202;20.950;2022-07-17T04:58:06;17.30;95.40
18454;DHT22;9356;52.202;20.950;2022-07-17T04:59:10;17.30;95.10
18454;DHT22;9356;52.202;20.950;2022-07-17T05:00:14;17.30;95.20
18454;DHT22;9356;52.202;20.950;2022-07-17T05:01:18;17.40;95.10
18454;DHT22;9356;52.202;20.950;2022-07-17T05:02:22;17.50;94.70
18454;DHT22;9356;52.202;20.950;2022-07-17T05:03:25;17.50;95.00
18454;DHT22;9356;52.202;20.950;2022-07-17T05:04:29;17.50;94.70
18454;DHT22;9356;52.202;20.950;2022-07-17T05:05:31;17.60;94.70
18454;DHT22;9356;52.202;20.950;2022-07-17T05:06:35;17.60;94.50
18454;DHT22;9356;52.202;20.950;2022-07-17T05:07:37;17.70;94.20
18454;DHT22;9356;52.202;20.950;2022-07-17T05:08:40;17.70;94.00
18454;DHT22;9356;52.202;20.950;2022-07-17T05:09:43;17.70;94.00
18454;DHT22;9356;52.202;20.950;2022-07-17T05:10:46;17.70;93.90
18454;DHT22;9356;52.202;20.950;2022-07-17T05:11:49;17.80;93.90
18454;DHT22;9356;52.202;20.950;2022-07-17T05:12:53;17.70;93.90
18454;DHT22;9356;52.202;20.950;2022-07-17T05:13:55;17.70;94.00
18454;DHT22;9356;52.202;20.950;2022-07-17T05:14:58;17.70;93.90
18454;DHT22;9356;52.202;20.950;2022-07-17T05:16:01;17.70;94.10
18454;DHT22;9356;52.202;20.950;2022-07-17T05:17:06;17.70;94.30
18454;DHT22;9356;52.202;20.950;2022-07-17T05:18:08;17.70;94.30
18454;DHT22;9356;52.202;20.950;2022-07-17T05:19:12;17.70;94.00
18454;DHT22;9356;52.202;20.950;2022-07-17T05:20:15;17.80;94.30
18454;DHT22;9356;52.202;20.950;2022-07-17T05:21:18;16.90;94.20
18454;DHT22;9356;52.202;20.950;2022-07-17T05:22:20;17.90;94.70
18454;DHT22;9356;52.202;20.950;2022-07-17T05:23:24;18.00;94.50
18454;DHT22;9356;52.202;20.950;2022-07-17T05:24:26;18.20;94.10
18454;DHT22;9356;52.202;20.950;2022-07-17T05:25:30;18.20;93.80
18454;DHT22;9356;52.202;20.950;2022-07-17T05:26:32;18.30;93.60
18454;DHT22;9356;52.202;20.950;2022-07-17T05:27:36;18.40;93.40
18454;DHT22;9356;52.202;20.950;2022-07-17T05:28:38;18.40;93.50
18454;DHT22;9356;52.202;20.950;2022-07-17T05:29:42;18.50;93.40
18454;DHT22;9356;52.202;20.950;2022-07-17T05:30:44;18.70;93.30
18454;DHT22;9356;52.202;20.950;2022-07-17T05:31:48;18.80;93.10
18454;DHT22;9356;52.202;20.950;2022-07-17T05:32:52;19.10;92.90
18454;DHT22;9356;52.202;20.950;2022-07-17T05:33:55;19.30;92.20
18454;DHT22;9356;52.202;20.950;2022-07-17T05:34:58;19.50;91.50
18454;DHT22;9356;52.202;20.950;2022-07-17T05:36:02;19.70;90.90
18454;DHT22;9356;52.202;20.950;2022-07-17T05:37:04;19.80;90.90
18454;DHT22;9356;52.202;20.950;2022-07-17T05:38:09;19.80;90.60
18454;DHT22;9356;52.202;20.950;2022-07-17T05:39:13;19.80;90.10
18454;DHT22;9356;52.202;20.950;2022-07-17T05:40:15;19.90;89.80
18454;DHT22;9356;52.202;20.950;2022-07-17T05:41:18;19.90;88.70
18454;DHT22;9356;52.202;20.950;2022-07-17T05:42:21;19.80;89.50
18454;DHT22;9356;52.202;20.950;2022-07-17T05:43:24;19.70;89.70
18454;DHT22;9356;52.202;20.950;2022-07-17T05:44:26;19.60;90.00
18454;DHT22;9356;52.202;20.950;2022-07-17T05:45:30;19.50;90.10
18454;DHT22;9356;52.202;20.950;2022-07-17T05:46:33;19.50;90.30
18454;DHT22;9356;52.202;20.950;2022-07-17T05:47:36;19.40;90.40
18454;DHT22;9356;52.202;20.950;2022-07-17T05:48:40;19.40;91.00
18454;DHT22;9356;52.202;20.950;2022-07-17T05:49:45;19.50;90.70
18454;DHT22;9356;52.202;20.950;2022-07-17T05:50:47;19.50;90.40
18454;DHT22;9356;52.202;20.950;2022-07-17T05:51:51;19.40;90.00
18454;DHT22;9356;52.202;20.950;2022-07-17T05:52:53;19.30;90.30
18454;DHT22;9356;52.202;20.950;2022-07-17T05:53:56;19.30;90.40
18454;DHT22;9356;52.202;20.950;2022-07-17T05:54:59;19.20;90.40
18454;DHT22;9356;52.202;20.950;2022-07-17T05:56:02;19.10;90.60
18454;DHT22;9356;52.202;20.950;2022-07-17T05:57:05;19.00;90.70
18454;DHT22;9356;52.202;20.950;2022-07-17T05:58:11;19.10;90.70
18454;DHT22;9356;52.202;20.950;2022-07-17T05:59:14;18.90;90.60
18454;DHT22;9356;52.202;20.950;2022-07-17T06:00:17;18.90;90.50
18454;DHT22;9356;52.202;20.950;2022-07-17T06:01:20;18.80;90.80
18454;DHT22;9356;52.202;20.950;2022-07-17T06:02:23;18.80;91.00
18454;DHT22;9356;52.202;20.950;2022-07-17T06:03:26;18.70;91.20
18454;DHT22;9356;52.202;20.950;2022-07-17T06:04:33;18.70;91.20
18454;DHT22;9356;52.202;20.950;2022-07-17T06:05:35;18.50;91.20
18454;DHT22;9356;52.202;20.950;2022-07-17T06:06:39;18.40;91.60
18454;DHT22;9356;52.202;20.950;2022-07-17T06:07:41;18.50;91.40
18454;DHT22;9356;52.202;20.950;2022-07-17T06:08:45;18.50;91.80
18454;DHT22;9356;52.202;20.950;2022-07-17T06:09:47;18.50;91.70
18454;DHT22;9356;52.202;20.950;2022-07-17T06:10:50;18.50;91.70
18454;DHT22;9356;52.202;20.950;2022-07-17T06:11:52;18.60;91.60
18454;DHT22;9356;52.202;20.950;2022-07-17T06:12:56;18.70;91.50
18454;DHT22;9356;52.202;20.950;2022-07-17T06:13:59;18.80;91.30
18454;DHT22;9356;52.202;20.950;2022-07-17T06:15:03;18.70;91.30
18454;DHT22;9356;52.202;20.950;2022-07-17T06:16:06;18.70;91.30
18454;DHT22;9356;52.202;20.950;2022-07-17T06:17:11;18.80;91.40
18454;DHT22;9356;52.202;20.950;2022-07-17T06:18:14;18.80;91.30
18454;DHT22;9356;52.202;20.950;2022-07-17T06:19:18;18.70;91.20
18454;DHT22;9356;52.202;20.950;2022-07-17T06:20:22;18.70;91.70
18454;DHT22;9356;52.202;20.950;2022-07-17T06:21:27;18.70;91.50
18454;DHT22;9356;52.202;20.950;2022-07-17T06:22:29;19.80;92.00
18454;DHT22;9356;52.202;20.950;2022-07-17T06:23:33;17.60;91.50
18454;DHT22;9356;52.202;20.950;2022-07-17T06:24:35;18.60;91.30
18454;DHT22;9356;52.202;20.950;2022-07-17T06:25:39;18.50;91.50
18454;DHT22;9356;52.202;20.950;2022-07-17T06:26:41;18.50;91.30
18454;DHT22;9356;52.202;20.950;2022-07-17T06:27:45;18.40;91.70
18454;DHT22;9356;52.202;20.950;2022-07-17T06:28:47;18.40;92.10
18454;DHT22;9356;52.202;20.950;2022-07-17T06:29:51;18.40;92.00
18454;DHT22;9356;52.202;20.950;2022-07-17T06:30:58;18.40;91.90
18454;DHT22;9356;52.202;20.950;2022-07-17T06:32:01;18.40;92.00
18454;DHT22;9356;52.202;20.950;2022-07-17T06:33:04;18.40;92.00
18454;DHT22;9356;52.202;20.950;2022-07-17T06:34:07;18.40;91.90
18454;DHT22;9356;52.202;20.950;2022-07-17T06:35:10;18.50;92.10
18454;DHT22;9356;52.202;20.950;2022-07-17T06:36:15;18.60;91.90
18454;DHT22;9356;52.202;20.950;2022-07-17T06:37:18;18.50;91.70
18454;DHT22;9356;52.202;20.950;2022-07-17T06:38:22;18.60;91.80
18454;DHT22;9356;52.202;20.950;2022-07-17T06:39:25;18.60;91.70
18454;DHT22;9356;52.202;20.950;2022-07-17T06:40:28;18.70;91.60
18454;DHT22;9356;52.202;20.950;2022-07-17T06:41:31;18.70;91.40
18454;DHT22;9356;52.202;20.950;2022-07-17T06:42:34;18.50;91.60
18454;DHT22;9356;52.202;20.950;2022-07-17T06:43:37;18.30;91.70